sensor_id;sensor_type;location;lat;lon;timestamp;P1;durP1;ratioP1;P2;durP2;ratioP2
68224;SDS011;57497;43.322;21.932;2024-03-23T00:55:34;22;;;12.7;;
68224;SDS011;57497;43.322;21.932;2024-03-23T01:00:36;31.7;;;15.6;;
68224;SDS011;57497;43.322;21.932;2024-03-23T01:05:36;23.1;;;13.4;;
68224;SDS011;57497;43.322;21.932;2024-03-23T01:10:34;34.8;;;15.6;;
68224;SDS011;57497;43.322;21.932;2024-03-23T01:15:34;33;;;15;;
68224;SDS011;57497;43.322;21.932;2024-03-23T01:20:34;30.9;;;15.7;;
68224;SDS011;57497;43.322;21.932;2024-03-23T01:25:33;23.2;;;12.9;;
68224;SDS011;57497;43.322;21.932;2024-03-23T01:30:33;33.7;;;16;;
68224;SDS011;57497;43.322;21.932;2024-03-23T01:35:33;22.8;;;14.2;;
68224;SDS011;57497;43.322;21.932;2024-03-23T01:40:33;31.3;;;14.8;;
68224;SDS011;57497;43.322;21.932;2024-03-23T01:45:33;37.2;;;18.5;;
68224;SDS011;57497;43.322;21.932;2024-03-23T01:50:33;23.7;;;12.7;;
68224;SDS011;57497;43.322;21.932;2024-03-23T01:55:33;39.9;;;17.5;;
68224;SDS011;57497;43.322;21.932;2024-03-23T02:00:36;31.8;;;16.4;;
68224;SDS011;57497;43.322;21.932;2024-03-23T02:05:35;42.8;;;18.8;;
68224;SDS011;57497;43.322;21.932;2024-03-23T02:10:33;38.7;;;19.8;;
68224;SDS011;57497;43.322;21.932;2024-03-23T02:15:33;26;;;16.2;;
68224;SDS011;57497;43.322;21.932;2024-03-23T02:20:33;25.9;;;14;;
68224;SDS011;57497;43.322;21.932;2024-03-23T02:25:33;34;;;14.1;;
68224;SDS011;57497;43.322;21.932;2024-03-23T02:30:33;20.8;;;12.7;;
68224;SDS011;57497;43.322;21.932;2024-03-23T02:35:33;17.5;;;10.3;;
68224;SDS011;57497;43.322;21.932;2024-03-23T02:40:33;15.8;;;10.1;;
68224;SDS011;57497;43.322;21.932;2024-03-23T02:45:33;22.4;;;12.9;;
68224;SDS011;57497;43.322;21.932;2024-03-23T02:50:33;25.1;;;14.9;;
68224;SDS011;57497;43.322;21.932;2024-03-23T02:55:34;35.1;;;15.2;;
68224;SDS011;57497;43.322;21.932;2024-03-23T03:00:36;25.5;;;13.2;;
68224;SDS011;57497;43.322;21.932;2024-03-23T03:05:35;35.1;;;11;;
68224;SDS011;57497;43.322;21.932;2024-03-23T03:10:33;18.8;;;9.3;;
68224;SDS011;57497;43.322;21.932;2024-03-23T03:15:34;20;;;9.1;;
68224;SDS011;57497;43.322;21.932;2024-03-23T03:20:34;16.1;;;8.3;;
68224;SDS011;57497;43.322;21.932;2024-03-23T03:25:34;22.9;;;9.8;;
68224;SDS011;57497;43.322;21.932;2024-03-23T03:30:33;18.8;;;9.9;;
68224;SDS011;57497;43.322;21.932;2024-03-23T03:35:33;17.6;;;9.4;;
68224;SDS011;57497;43.322;21.932;2024-03-23T03:40:33;18.5;;;9;;
68224;SDS011;57497;43.322;21.932;2024-03-23T03:45:33;15.1;;;9.3;;
68224;SDS011;57497;43.322;21.932;2024-03-23T03:50:34;16.8;;;9.4;;
68224;SDS011;57497;43.322;21.932;2024-03-23T03:55:33;15.7;;;8.4;;
68224;SDS011;57497;43.322;21.932;2024-03-23T04:00:36;14.2;;;7.5;;
68224;SDS011;57497;43.322;21.932;2024-03-23T04:05:35;19.9;;;10.5;;
68224;SDS011;57497;43.322;21.932;2024-03-23T04:10:33;19;;;9.9;;
68224;SDS011;57497;43.322;21.932;2024-03-23T04:15:34;22.5;;;7.9;;
68224;SDS011;57497;43.322;21.932;2024-03-23T04:20:34;15.9;;;9.1;;
68224;SDS011;57497;43.322;21.932;2024-03-23T04:25:33;29.5;;;8.6;;
68224;SDS011;57497;43.322;21.932;2024-03-23T04:30:33;18.6;;;10.1;;
68224;SDS011;57497;43.322;21.932;2024-03-23T04:35:33;14;;;7.5;;
68224;SDS011;57497;43.322;21.932;2024-03-23T04:40:33;26;;;10.9;;
68224;SDS011;57497;43.322;21.932;2024-03-23T04:45:33;18.8;;;11.7;;
68224;SDS011;57497;43.322;21.932;2024-03-23T04:50:33;33.9;;;13.8;;
68224;SDS011;57497;43.322;21.932;2024-03-23T04:55:33;25.7;;;10.1;;
68224;SDS011;57497;43.322;21.932;2024-03-23T05:00:35;17.4;;;10.1;;
68224;SDS011;57497;43.322;21.932;2024-03-23T05:05:35;28.6;;;10.8;;
68224;SDS011;57497;43.322;21.932;2024-03-23T05:10:33;16.7;;;9.9;;
68224;SDS011;57497;43.322;21.932;2024-03-23T05:15:33;20.8;;;11.2;;
68224;SDS011;57497;43.322;21.932;2024-03-23T05:20:33;22.3;;;12.1;;
68224;SDS011;57497;43.322;21.932;2024-03-23T05:25:33;33.7;;;15.2;;
68224;SDS011;57497;43.322;21.932;2024-03-23T05:30:33;34.7;;;18.2;;
68224;SDS011;57497;43.322;21.932;2024-03-23T05:35:33;24.4;;;10.2;;
68224;SDS011;57497;43.322;21.932;2024-03-23T05:40:33;16;;;10.8;;
68224;SDS011;57497;43.322;21.932;2024-03-23T05:45:33;17;;;10.2;;
68224;SDS011;57497;43.322;21.932;2024-03-23T05:50:33;21.3;;;10.4;;
68224;SDS011;57497;43.322;21.932;2024-03-23T05:55:33;20.1;;;9.8;;
68224;SDS011;57497;43.322;21.932;2024-03-23T06:00:35;19.3;;;13.3;;
68224;SDS011;57497;43.322;21.932;2024-03-23T06:05:36;24.1;;;15.2;;
68224;SDS011;57497;43.322;21.932;2024-03-23T06:10:33;28.6;;;13.4;;
68224;SDS011;57497;43.322;21.932;2024-03-23T06:15:33;15.3;;;9.4;;
68224;SDS011;57497;43.322;21.932;2024-03-23T06:20:33;11.6;;;7.2;;
68224;SDS011;57497;43.322;21.932;2024-03-23T06:25:33;14;;;8.2;;
68224;SDS011;57497;43.322;21.932;2024-03-23T06:30:33;16.3;;;8.9;;
68224;SDS011;57497;43.322;21.932;2024-03-23T06:35:33;15.1;;;7.6;;
68224;SDS011;57497;43.322;21.932;2024-03-23T06:40:35;16.5;;;7.6;;
68224;SDS011;57497;43.322;21.932;2024-03-23T06:45:33;10.1;;;6.9;;
68224;SDS011;57497;43.322;21.932;2024-03-23T06:50:33;10.4;;;6.5;;
68224;SDS011;57497;43.322;21.932;2024-03-23T06:55:33;13.8;;;7.9;;
68224;SDS011;57497;43.322;21.932;2024-03-23T07:00:36;11.2;;;7.1;;
68224;SDS011;57497;43.322;21.932;2024-03-23T07:05:36;18.1;;;8.1;;
68224;SDS011;57497;43.322;21.932;2024-03-23T07:10:33;14.8;;;8.5;;
68224;SDS011;57497;43.322;21.932;2024-03-23T07:15:33;24.1;;;7.1;;
68224;SDS011;57497;43.322;21.932;2024-03-23T07:20:33;18.2;;;7.4;;
68224;SDS011;57497;43.322;21.932;2024-03-23T07:25:33;17.2;;;5.8;;
68224;SDS011;57497;43.322;21.932;2024-03-23T07:30:33;7.4;;;5.3;;
68224;SDS011;57497;43.322;21.932;2024-03-23T07:35:33;14;;;8.2;;
68224;SDS011;57497;43.322;21.932;2024-03-23T07:40:33;10;;;5.9;;
68224;SDS011;57497;43.322;21.932;2024-03-23T07:45:33;10.6;;;7.9;;
68224;SDS011;57497;43.322;21.932;2024-03-23T07:50:33;9.7;;;5.9;;
68224;SDS011;57497;43.322;21.932;2024-03-23T07:55:34;8.3;;;5.3;;
68224;SDS011;57497;43.322;21.932;2024-03-23T08:00:36;17.4;;;6.5;;
68224;SDS011;57497;43.322;21.932;2024-03-23T08:05:35;8;;;5.2;;
68224;SDS011;57497;43.322;21.932;2024-03-23T08:10:33;10.4;;;5.5;;
68224;SDS011;57497;43.322;21.932;2024-03-23T08:15:33;7.4;;;5.3;;
68224;SDS011;57497;43.322;21.932;2024-03-23T08:20:33;7.9;;;5.3;;
68224;SDS011;57497;43.322;21.932;2024-03-23T08:25:34;9.2;;;6.3;;
68224;SDS011;57497;43.322;21.932;2024-03-23T08:30:34;9.1;;;6;;
68224;SDS011;57497;43.322;21.932;2024-03-23T08:35:33;8;;;5.5;;
68224;SDS011;57497;43.322;21.932;2024-03-23T08:40:33;7.1;;;5.6;;
68224;SDS011;57497;43.322;21.932;2024-03-23T08:45:33;8.8;;;5.3;;
68224;SDS011;57497;43.322;21.932;2024-03-23T08:50:33;8.3;;;5.6;;
68224;SDS011;57497;43.322;21.932;2024-03-23T08:55:34;9.5;;;6.9;;
68224;SDS011;57497;43.322;21.932;2024-03-23T09:00:35;10.3;;;7.4;;
68224;SDS011;57497;43.322;21.932;2024-03-23T09:05:33;19.3;;;6.7;;
68224;SDS011;57497;43.322;21.932;2024-03-23T09:10:35;10.3;;;7.5;;
68224;SDS011;57497;43.322;21.932;2024-03-23T09:15:34;22.1;;;6.6;;
68224;SDS011;57497;43.322;21.932;2024-03-23T09:20:33;11.4;;;8.5;;
68224;SDS011;57497;43.322;21.932;2024-03-23T09:25:35;14.4;;;8.7;;
68224;SDS011;57497;43.322;21.932;2024-03-23T09:30:33;20.1;;;10.7;;
68224;SDS011;57497;43.322;21.932;2024-03-23T09:35:36;20.2;;;10;;
68224;SDS011;57497;43.322;21.932;2024-03-23T09:40:34;16.6;;;10.7;;
68224;SDS011;57497;43.322;21.932;2024-03-23T09:45:34;13;;;9.5;;
68224;SDS011;57497;43.322;21.932;2024-03-23T09:50:33;17.4;;;12.7;;
68224;SDS011;57497;43.322;21.932;2024-03-23T09:55:33;17.8;;;12.7;;
68224;SDS011;57497;43.322;21.932;2024-03-23T10:00:35;15.5;;;11.2;;
68224;SDS011;57497;43.322;21.932;2024-03-23T10:05:33;17.1;;;11;;
68224;SDS011;57497;43.322;21.932;2024-03-23T10:10:33;15.8;;;11.9;;
68224;SDS011;57497;43.322;21.932;2024-03-23T10:15:34;13.8;;;10.4;;
68224;SDS011;57497;43.322;21.932;2024-03-23T10:20:34;13;;;10.5;;
68224;SDS011;57497;43.322;21.932;2024-03-23T10:25:33;10.8;;;7.3;;
68224;SDS011;57497;43.322;21.932;2024-03-23T10:30:33;19.8;;;9.1;;
68224;SDS011;57497;43.322;21.932;2024-03-23T10:35:33;15.9;;;9.8;;
68224;SDS011;57497;43.322;21.932;2024-03-23T10:40:33;8.8;;;7;;
68224;SDS011;57497;43.322;21.932;2024-03-23T10:45:34;8.4;;;5.6;;
68224;SDS011;57497;43.322;21.932;2024-03-23T10:50:33;7.7;;;5.2;;
68224;SDS011;57497;43.322;21.932;2024-03-23T10:55:33;8.5;;;6.5;;
68224;SDS011;57497;43.322;21.932;2024-03-23T11:00:35;7.2;;;4.7;;
68224;SDS011;57497;43.322;21.932;2024-03-23T11:05:33;8.5;;;5.2;;
68224;SDS011;57497;43.322;21.932;2024-03-23T11:10:33;14.1;;;6.5;;
68224;SDS011;57497;43.322;21.932;2024-03-23T11:15:33;7.1;;;5.4;;
68224;SDS011;57497;43.322;21.932;2024-03-23T11:20:33;9.1;;;5.3;;
68224;SDS011;57497;43.322;21.932;2024-03-23T11:25:33;10.4;;;5.4;;
68224;SDS011;57497;43.322;21.932;2024-03-23T11:30:33;15.7;;;5.5;;
68224;SDS011;57497;43.322;21.932;2024-03-23T11:35:35;9.4;;;5.6;;
68224;SDS011;57497;43.322;21.932;2024-03-23T11:40:34;12.2;;;5.5;;
68224;SDS011;57497;43.322;21.932;2024-03-23T11:45:34;9;;;5.1;;
68224;SDS011;57497;43.322;21.932;2024-03-23T11:50:35;9.9;;;5.6;;
68224;SDS011;57497;43.322;21.932;2024-03-23T11:55:38;9.2;;;5.1;;
68224;SDS011;57497;43.322;21.932;2024-03-23T12:00:35;6.4;;;4.1;;
68224;SDS011;57497;43.322;21.932;2024-03-23T12:05:35;11.4;;;5.7;;
68224;SDS011;57497;43.322;21.932;2024-03-23T12:10:34;8.5;;;5.1;;
68224;SDS011;57497;43.322;21.932;2024-03-23T12:15:34;7.4;;;4.7;;
68224;SDS011;57497;43.322;21.932;2024-03-23T12:20:33;9.4;;;5.2;;
68224;SDS011;57497;43.322;21.932;2024-03-23T12:25:34;5.6;;;4.9;;
68224;SDS011;57497;43.322;21.932;2024-03-23T12:30:35;6.3;;;4.4;;
68224;SDS011;57497;43.322;21.932;2024-03-23T12:35:34;15.9;;;5.6;;
68224;SDS011;57497;43.322;21.932;2024-03-23T12:40:34;7.1;;;4.7;;
68224;SDS011;57497;43.322;21.932;2024-03-23T12:45:33;7.4;;;5.3;;
68224;SDS011;57497;43.322;21.932;2024-03-23T12:50:33;9.6;;;5.7;;
68224;SDS011;57497;43.322;21.932;2024-03-23T12:55:34;12.3;;;6.7;;
68224;SDS011;57497;43.322;21.932;2024-03-23T13:00:35;17.2;;;7;;
68224;SDS011;57497;43.322;21.932;2024-03-23T13:05:34;14.7;;;6.8;;
68224;SDS011;57497;43.322;21.932;2024-03-23T13:10:33;7.4;;;5.3;;
68224;SDS011;57497;43.322;21.932;2024-03-23T13:15:34;11.1;;;4.6;;
68224;SDS011;57497;43.322;21.932;2024-03-23T13:20:35;6.9;;;4.8;;
68224;SDS011;57497;43.322;21.932;2024-03-23T13:25:34;5.3;;;3.9;;
68224;SDS011;57497;43.322;21.932;2024-03-23T13:30:34;7.1;;;4.4;;
68224;SDS011;57497;43.322;21.932;2024-03-23T13:35:33;8.9;;;5.4;;
68224;SDS011;57497;43.322;21.932;2024-03-23T13:40:33;7.5;;;4.2;;
68224;SDS011;57497;43.322;21.932;2024-03-23T13:45:33;14.8;;;4.7;;
68224;SDS011;57497;43.322;21.932;2024-03-23T13:50:33;9.3;;;5.5;;
68224;SDS011;57497;43.322;21.932;2024-03-23T13:55:33;6.5;;;4.1;;
68224;SDS011;57497;43.322;21.932;2024-03-23T14:00:35;7.7;;;5.5;;
68224;SDS011;57497;43.322;21.932;2024-03-23T14:05:34;10.3;;;6.2;;
68224;SDS011;57497;43.322;21.932;2024-03-23T14:10:34;8.6;;;7.2;;
68224;SDS011;57497;43.322;21.932;2024-03-23T14:15:34;17.3;;;10.1;;
68224;SDS011;57497;43.322;21.932;2024-03-23T14:20:33;8.1;;;7.4;;
68224;SDS011;57497;43.322;21.932;2024-03-23T14:25:33;9.8;;;8.9;;
68224;SDS011;57497;43.322;21.932;2024-03-23T14:30:33;11.1;;;10;;
68224;SDS011;57497;43.322;21.932;2024-03-23T14:35:33;10.8;;;9.9;;
68224;SDS011;57497;43.322;21.932;2024-03-23T14:40:33;12.2;;;11.1;;
68224;SDS011;57497;43.322;21.932;2024-03-23T14:45:33;14;;;12.8;;
68224;SDS011;57497;43.322;21.932;2024-03-23T14:50:33;16.1;;;14.7;;
68224;SDS011;57497;43.322;21.932;2024-03-23T14:55:34;20.5;;;18.5;;
68224;SDS011;57497;43.322;21.932;2024-03-23T15:00:36;20.2;;;18.6;;
68224;SDS011;57497;43.322;21.932;2024-03-23T15:05:35;17.8;;;16.4;;
68224;SDS011;57497;43.322;21.932;2024-03-23T15:10:33;73;;;67.8;;
68224;SDS011;57497;43.322;21.932;2024-03-23T15:15:37;27.7;;;25.2;;
68224;SDS011;57497;43.322;21.932;2024-03-23T15:20:33;33.8;;;31.5;;
68224;SDS011;57497;43.322;21.932;2024-03-23T15:25:33;27.1;;;25.2;;
68224;SDS011;57497;43.322;21.932;2024-03-23T15:30:33;60.4;;;56.5;;
68224;SDS011;57497;43.322;21.932;2024-03-23T15:35:34;38.1;;;35.6;;
68224;SDS011;57497;43.322;21.932;2024-03-23T15:40:34;50.6;;;47.1;;
68224;SDS011;57497;43.322;21.932;2024-03-23T15:45:33;20.1;;;18.5;;
68224;SDS011;57497;43.322;21.932;2024-03-23T15:50:35;22.9;;;17.4;;
68224;SDS011;57497;43.322;21.932;2024-03-23T15:55:33;16.6;;;15.1;;
68224;SDS011;57497;43.322;21.932;2024-03-23T16:00:35;12.7;;;11.5;;
68224;SDS011;57497;43.322;21.932;2024-03-23T16:05:34;29.8;;;15.3;;
68224;SDS011;57497;43.322;21.932;2024-03-23T16:10:34;18.3;;;11.1;;
68224;SDS011;57497;43.322;21.932;2024-03-23T16:15:34;7.9;;;7;;
68224;SDS011;57497;43.322;21.932;2024-03-23T16:20:33;11;;;7.7;;
68224;SDS011;57497;43.322;21.932;2024-03-23T16:25:33;8;;;5.3;;
68224;SDS011;57497;43.322;21.932;2024-03-23T16:30:33;11.7;;;5.7;;
68224;SDS011;57497;43.322;21.932;2024-03-23T16:35:33;6.3;;;4;;
68224;SDS011;57497;43.322;21.932;2024-03-23T16:40:33;8.6;;;5.7;;
68224;SDS011;57497;43.322;21.932;2024-03-23T16:45:34;8.4;;;6;;
68224;SDS011;57497;43.322;21.932;2024-03-23T16:50:35;26.9;;;5.1;;
68224;SDS011;57497;43.322;21.932;2024-03-23T16:55:33;5.8;;;5.2;;
68224;SDS011;57497;43.322;21.932;2024-03-23T17:00:35;14.4;;;6.2;;
68224;SDS011;57497;43.322;21.932;2024-03-23T17:05:37;19.9;;;8.3;;
68224;SDS011;57497;43.322;21.932;2024-03-23T17:10:33;11.5;;;6.2;;
68224;SDS011;57497;43.322;21.932;2024-03-23T17:15:41;10;;;5.5;;
68224;SDS011;57497;43.322;21.932;2024-03-23T17:20:34;12.4;;;7.1;;
68224;SDS011;57497;43.322;21.932;2024-03-23T17:25:34;11.3;;;7.4;;
68224;SDS011;57497;43.322;21.932;2024-03-23T17:30:34;19.4;;;7.3;;
68224;SDS011;57497;43.322;21.932;2024-03-23T17:35:34;7.6;;;5.6;;
68224;SDS011;57497;43.322;21.932;2024-03-23T17:40:34;10.8;;;6.9;;
68224;SDS011;57497;43.322;21.932;2024-03-23T17:45:34;10.4;;;7;;
68224;SDS011;57497;43.322;21.932;2024-03-23T17:50:33;11.8;;;8.5;;
68224;SDS011;57497;43.322;21.932;2024-03-23T17:55:33;6.8;;;4.4;;
68224;SDS011;57497;43.322;21.932;2024-03-23T18:00:35;9.4;;;5.5;;
68224;SDS011;57497;43.322;21.932;2024-03-23T18:05:35;12.6;;;8.4;;
68224;SDS011;57497;43.322;21.932;2024-03-23T18:10:33;13.9;;;10;;
68224;SDS011;57497;43.322;21.932;2024-03-23T18:15:33;28;;;11;;
68224;SDS011;57497;43.322;21.932;2024-03-23T18:20:33;18.5;;;10.3;;
68224;SDS011;57497;43.322;21.932;2024-03-23T18:25:34;21.6;;;9.8;;
68224;SDS011;57497;43.322;21.932;2024-03-23T18:30:34;10.7;;;7.2;;
68224;SDS011;57497;43.322;21.932;2024-03-23T18:35:33;17.7;;;11.5;;
68224;SDS011;57497;43.322;21.932;2024-03-23T18:40:33;17.9;;;9.1;;
68224;SDS011;57497;43.322;21.932;2024-03-23T18:45:33;20.7;;;10.2;;
68224;SDS011;57497;43.322;21.932;2024-03-23T18:50:34;22.2;;;11;;
68224;SDS011;57497;43.322;21.932;2024-03-23T18:55:33;19.5;;;10.1;;
68224;SDS011;57497;43.322;21.932;2024-03-23T19:00:35;8;;;6.4;;
68224;SDS011;57497;43.322;21.932;2024-03-23T19:05:35;13.7;;;7.8;;
68224;SDS011;57497;43.322;21.932;2024-03-23T19:10:33;9.9;;;6.9;;
68224;SDS011;57497;43.322;21.932;2024-03-23T19:15:33;15.9;;;6.9;;
68224;SDS011;57497;43.322;21.932;2024-03-23T19:20:33;17;;;10.1;;
68224;SDS011;57497;43.322;21.932;2024-03-23T19:25:33;18.3;;;9;;
68224;SDS011;57497;43.322;21.932;2024-03-23T19:30:34;18.9;;;8.7;;
68224;SDS011;57497;43.322;21.932;2024-03-23T19:35:34;14.5;;;7.4;;
68224;SDS011;57497;43.322;21.932;2024-03-23T19:40:34;31.2;;;9;;
68224;SDS011;57497;43.322;21.932;2024-03-23T19:45:33;11.8;;;7.6;;
68224;SDS011;57497;43.322;21.932;2024-03-23T19:50:33;28.5;;;16.2;;
68224;SDS011;57497;43.322;21.932;2024-03-23T19:55:33;18.4;;;13.3;;
68224;SDS011;57497;43.322;21.932;2024-03-23T20:00:35;23.4;;;10.7;;
68224;SDS011;57497;43.322;21.932;2024-03-23T20:05:33;18;;;11.6;;
68224;SDS011;57497;43.322;21.932;2024-03-23T20:10:33;12.8;;;8.3;;
68224;SDS011;57497;43.322;21.932;2024-03-23T20:15:33;21.7;;;9.8;;
68224;SDS011;57497;43.322;21.932;2024-03-23T20:20:33;13.1;;;7.3;;
68224;SDS011;57497;43.322;21.932;2024-03-23T20:25:33;16.4;;;8.9;;
68224;SDS011;57497;43.322;21.932;2024-03-23T20:30:33;11.3;;;7.5;;
68224;SDS011;57497;43.322;21.932;2024-03-23T20:35:33;12.7;;;8.1;;
68224;SDS011;57497;43.322;21.932;2024-03-23T20:40:33;16.2;;;7.2;;
68224;SDS011;57497;43.322;21.932;2024-03-23T20:45:33;25.9;;;9.5;;
68224;SDS011;57497;43.322;21.932;2024-03-23T20:50:34;13.6;;;9.5;;
68224;SDS011;57497;43.322;21.932;2024-03-23T20:55:33;19.3;;;7.5;;
68224;SDS011;57497;43.322;21.932;2024-03-23T21:00:35;23.1;;;9.3;;
68224;SDS011;57497;43.322;21.932;2024-03-23T21:05:33;14.7;;;9.1;;
68224;SDS011;57497;43.322;21.932;2024-03-23T21:10:33;13.3;;;8.3;;
68224;SDS011;57497;43.322;21.932;2024-03-23T21:15:33;23.3;;;8.9;;
68224;SDS011;57497;43.322;21.932;2024-03-23T21:20:33;24.6;;;8.3;;
68224;SDS011;57497;43.322;21.932;2024-03-23T21:25:33;17.2;;;8.5;;
68224;SDS011;57497;43.322;21.932;2024-03-23T21:30:34;23;;;8.6;;
68224;SDS011;57497;43.322;21.932;2024-03-23T21:35:33;26.9;;;14.8;;
68224;SDS011;57497;43.322;21.932;2024-03-23T21:40:33;24.3;;;12.3;;
68224;SDS011;57497;43.322;21.932;2024-03-23T21:45:33;28.7;;;13.7;;
68224;SDS011;57497;43.322;21.932;2024-03-23T21:50:33;12.7;;;8.6;;
68224;SDS011;57497;43.322;21.932;2024-03-23T21:55:33;23.5;;;10.4;;
68224;SDS011;57497;43.322;21.932;2024-03-23T22:00:36;29.8;;;12.9;;
68224;SDS011;57497;43.322;21.932;2024-03-23T22:05:33;28.2;;;12.1;;
68224;SDS011;57497;43.322;21.932;2024-03-23T22:10:33;31.3;;;12.7;;
68224;SDS011;57497;43.322;21.932;2024-03-23T22:15:33;35.7;;;13;;
68224;SDS011;57497;43.322;21.932;2024-03-23T22:20:33;15.3;;;10;;
68224;SDS011;57497;43.322;21.932;2024-03-23T22:25:33;16.8;;;8.6;;
68224;SDS011;57497;43.322;21.932;2024-03-23T22:30:33;15.8;;;7.3;;
68224;SDS011;57497;43.322;21.932;2024-03-23T22:35:33;16.6;;;7.6;;
68224;SDS011;57497;43.322;21.932;2024-03-23T22:40:33;25.1;;;7.8;;
68224;SDS011;57497;43.322;21.932;2024-03-23T22:45:33;8.2;;;4.8;;
68224;SDS011;57497;43.322;21.932;2024-03-23T22:50:33;18.3;;;6.3;;
68224;SDS011;57497;43.322;21.932;2024-03-23T22:55:33;12.4;;;6.4;;
68224;SDS011;57497;43.322;21.932;2024-03-23T23:00:37;9.5;;;5.8;;
68224;SDS011;57497;43.322;21.932;2024-03-23T23:10:33;8;;;5.5;;
68224;SDS011;57497;43.322;21.932;2024-03-23T23:15:33;31.8;;;6.6;;
68224;SDS011;57497;43.322;21.932;2024-03-23T23:20:33;10;;;6.8;;
68224;SDS011;57497;43.322;21.932;2024-03-23T23:25:33;8.8;;;4.9;;
68224;SDS011;57497;43.322;21.932;2024-03-23T23:30:33;10;;;6.6;;
68224;SDS011;57497;43.322;21.932;2024-03-23T23:35:33;8.8;;;4.9;;
68224;SDS011;57497;43.322;21.932;2024-03-23T23:40:34;14.8;;;7.2;;
68224;SDS011;57497;43.322;21.932;2024-03-23T23:45:34;15.4;;;4.5;;
68224;SDS011;57497;43.322;21.932;2024-03-23T23:50:34;12.5;;;7.3;;
68224;SDS011;57497;43.322;21.932;2024-03-23T23:55:34;11.8;;;6.4;;
